»·PEaware :: TEXAN19 KEUG-KPDX

TEXAN19 :: KEUG-KPDX

FLIGHT INFORMATION

Flight Status: Arrived
Operator: Unknown
More flights by this operator :: More flights under this callsign
Pilot: Indie I. (23340)
Aircraft: BEECH AIRCRAFT T-6A TEXAN
(TEX2)
More flights by this aircraft type
Origin: KEUG Mahlon Sweet
United States
Destination: KPDX Portland Intl
United States
More flights between these airports :: More routes between these airports
Route: CVO V495 UBG
File this flight plan on PilotEdge
Remarks: NA
Altitude:
(Current/Filed)
9,000ft
Speed:
(Current/Filed)
200kts
Departed: 02-Jul-20 07:31 AM
Arrived: 02-Jul-20 08:31 AM
Distance/Time
Traveled:
92nm/1:00
Distance/Time
To Go:
Arrived

Flight Plot

Page will automatically refresh every two minutes.


Map Options




Map Legend


Flown Route
Filed Route
Departure Airport
Arrival Airport
Navaid (VOR, NDB)
Fix

Horizontal Profiles

Position Reports

Time Latitude Longitude Heading Altitude Ground
Speed
02-Jul-20 07:13 44.121760 -123.210325 359 372ft 0kts
02-Jul-20 07:14 44.121763 -123.210325 359 372ft 0kts
02-Jul-20 07:15 44.121765 -123.210326 359 372ft 0kts
02-Jul-20 07:19 44.119727 -123.214658 359 372ft 0kts
02-Jul-20 07:20 44.119729 -123.214658 359 372ft 0kts
02-Jul-20 07:21 44.119732 -123.214658 359 372ft 0kts
02-Jul-20 07:22 44.119734 -123.214659 359 372ft 0kts
02-Jul-20 07:23 44.119737 -123.214659 359 372ft 0kts
02-Jul-20 07:24 44.119740 -123.214659 359 372ft 0kts
02-Jul-20 07:25 29.534797 -98.292083 201 765ft 0kts
02-Jul-20 07:26 29.534794 -98.292085 201 765ft 0kts
02-Jul-20 07:26 29.534792 -98.292086 201 765ft 0kts
02-Jul-20 07:28 29.534790 -98.292087 201 765ft 0kts
02-Jul-20 07:28 29.534788 -98.292088 201 765ft 0kts
02-Jul-20 07:29 29.534786 -98.292089 201 765ft 0kts
02-Jul-20 07:31 29.520477 -98.283661 151 784ft 179kts
02-Jul-20 07:31 29.506933 -98.270432 356 767ft 212kts
02-Jul-20 07:33 44.122792 -123.210219 179 373ft 0kts
02-Jul-20 07:33 44.122791 -123.210219 179 372ft 0kts
02-Jul-20 07:34 44.122789 -123.210219 179 372ft 0kts
02-Jul-20 07:35 44.122786 -123.210219 179 372ft 0kts
02-Jul-20 07:36 44.122784 -123.210219 180 372ft 0kts
02-Jul-20 07:37 44.122781 -123.210219 180 372ft 0kts
02-Jul-20 07:38 44.122779 -123.210219 180 372ft 0kts
02-Jul-20 07:39 44.122776 -123.210219 180 372ft 0kts
02-Jul-20 07:40 44.122774 -123.210220 180 372ft 0kts
02-Jul-20 07:41 44.122771 -123.210220 180 372ft 0kts
02-Jul-20 07:42 44.122769 -123.210220 180 372ft 0kts
02-Jul-20 07:43 44.122766 -123.210220 180 372ft 0kts
02-Jul-20 07:44 44.122764 -123.210220 181 372ft 0kts
02-Jul-20 07:45 44.122761 -123.210220 181 372ft 0kts
02-Jul-20 07:46 44.122759 -123.210220 181 372ft 0kts
02-Jul-20 07:47 44.122735 -123.210678 283 372ft 7kts
02-Jul-20 07:48 44.124201 -123.211154 32 372ft 9kts
02-Jul-20 07:49 44.125426 -123.210611 325 372ft 0kts
02-Jul-20 07:50 44.126146 -123.216448 283 372ft 24kts
02-Jul-20 07:51 44.133416 -123.217290 0 372ft 33kts
02-Jul-20 07:52 44.135195 -123.218042 267 372ft 0kts
02-Jul-20 07:53 44.135195 -123.218047 267 372ft 0kts
02-Jul-20 07:54 44.135193 -123.218099 268 372ft 5kts
02-Jul-20 07:55 44.121080 -123.218918 179 478ft 156kts
02-Jul-20 07:56 44.074223 -123.217915 178 3389ft 175kts
02-Jul-20 07:57 44.026824 -123.207965 123 6295ft 189kts
02-Jul-20 07:58 44.059780 -123.176248 346 8664ft 211kts
02-Jul-20 07:59 44.122743 -123.197549 347 8900ft 241kts
02-Jul-20 08:00 44.189523 -123.214134 350 8862ft 245kts
02-Jul-20 08:01 44.256711 -123.229594 350 8808ft 242kts
02-Jul-20 08:02 44.322963 -123.246683 349 8788ft 245kts
02-Jul-20 08:03 44.389287 -123.263919 349 8932ft 242kts
02-Jul-20 08:04 44.456723 -123.281064 350 8817ft 246kts
02-Jul-20 08:05 44.523531 -123.291612 16 8966ft 241kts
02-Jul-20 08:06 44.588066 -123.261196 14 8897ft 246kts
02-Jul-20 08:07 44.654229 -123.237405 14 8883ft 247kts
02-Jul-20 08:08 44.720528 -123.213980 14 8939ft 245kts
02-Jul-20 08:09 44.787637 -123.189821 14 8749ft 249kts
02-Jul-20 08:10 44.853758 -123.165076 14 8887ft 242kts
02-Jul-20 08:11 44.920130 -123.143562 10 8901ft 244kts
02-Jul-20 08:12 44.986693 -123.125729 11 8973ft 244kts
02-Jul-20 08:13 45.053830 -123.104701 13 8919ft 246kts
02-Jul-20 08:14 45.120056 -123.078571 17 8883ft 246kts
02-Jul-20 08:15 45.186071 -123.051153 17 8846ft 246kts
02-Jul-20 08:16 45.251053 -123.023550 16 8886ft 244kts
02-Jul-20 08:17 45.316355 -122.994227 17 8795ft 248kts
02-Jul-20 08:18 45.380653 -122.971063 10 8447ft 225kts
02-Jul-20 08:19 45.442004 -122.957491 7 6676ft 220kts
02-Jul-20 08:20 45.502905 -122.946161 8 4958ft 212kts
02-Jul-20 08:21 45.561925 -122.932060 9 5008ft 219kts
02-Jul-20 08:22 45.623880 -122.918156 13 4912ft 226kts
02-Jul-20 08:23 45.669921 -122.866674 37 3617ft 204kts
02-Jul-20 08:24 45.672394 -122.799587 116 2690ft 170kts
02-Jul-20 08:25 45.653533 -122.748720 116 2336ft 121kts
02-Jul-20 08:26 45.637357 -122.705219 119 1751ft 123kts
02-Jul-20 08:27 45.620883 -122.662582 119 1160ft 122kts
02-Jul-20 08:28 45.604233 -122.619759 119 450ft 122kts
02-Jul-20 08:29 45.589789 -122.582833 119 33ft 46kts
02-Jul-20 08:30 45.586994 -122.577441 209 33ft 0kts
02-Jul-20 08:31 45.586992 -122.577442 209 33ft 0kts
02-Jul-20 08:32 45.586990 -122.577444 209 33ft 0kts

Navigation Log

Ident Type
Flight plan parsing failed, navigation log unavailable